createdAt,value
2023-03-25T00:00:18.948Z,1.43
2023-03-25T00:02:48.161Z,1.70
2023-03-25T00:05:16.626Z,1.70
2023-03-25T00:07:44.289Z,1.67
2023-03-25T00:10:13.135Z,1.43
2023-03-25T00:12:40.146Z,1.40
2023-03-25T00:15:08.182Z,1.60
2023-03-25T00:17:36.521Z,1.60
2023-03-25T00:20:11.193Z,1.50
2023-03-25T00:22:41.328Z,1.73
2023-03-25T00:25:18.921Z,1.77
2023-03-25T00:27:47.241Z,1.53
2023-03-25T00:30:19.029Z,2.03
2023-03-25T00:32:49.596Z,1.70
2023-03-25T00:35:17.864Z,1.47
2023-03-25T00:37:45.747Z,1.37
2023-03-25T00:40:12.240Z,1.60
2023-03-25T00:42:49.845Z,1.53
2023-03-25T00:45:16.848Z,1.57
2023-03-25T00:47:43.638Z,3.03
2023-03-25T00:50:10.538Z,1.90
2023-03-25T00:52:37.231Z,1.97
2023-03-25T00:55:04.755Z,1.60
2023-03-25T00:57:31.315Z,2.70
2023-03-25T00:59:57.761Z,2.33
2023-03-25T01:02:24.423Z,2.13
2023-03-25T01:04:51.251Z,1.40
2023-03-25T01:07:20.107Z,1.63
2023-03-25T01:09:47.510Z,2.47
2023-03-25T01:12:15.613Z,2.60
2023-03-25T01:14:42.575Z,2.53
2023-03-25T01:17:09.360Z,2.03
2023-03-25T01:19:35.982Z,1.50
2023-03-25T01:22:02.485Z,2.27
2023-03-25T01:24:28.960Z,1.87
2023-03-25T01:26:55.342Z,1.80
2023-03-25T01:29:22.421Z,1.73
2023-03-25T01:31:48.888Z,1.80
2023-03-25T01:34:15.983Z,2.20
2023-03-25T01:36:46.263Z,2.17
2023-03-25T01:39:17.108Z,1.90
2023-03-25T01:41:50.123Z,2.60
2023-03-25T01:44:20.902Z,2.40
2023-03-25T01:46:49.154Z,2.20
2023-03-25T01:49:23.593Z,3.20
2023-03-25T01:51:55.046Z,2.13
2023-03-25T01:54:22.081Z,1.63
2023-03-25T01:56:49.876Z,1.37
2023-03-25T01:59:20.125Z,2.33
2023-03-25T02:01:47.011Z,2.37
2023-03-25T02:04:22.739Z,1.80
2023-03-25T02:06:53.659Z,2.33
2023-03-25T02:09:24.041Z,1.90
2023-03-25T02:11:54.492Z,2.27
2023-03-25T02:14:26.612Z,3.30
2023-03-25T02:17:35.192Z,2.03
2023-03-25T02:20:08.154Z,2.17
2023-03-25T02:22:37.847Z,2.20
2023-03-25T02:25:19.115Z,2.50
2023-03-25T02:27:54.774Z,2.50
2023-03-25T02:30:41.314Z,2.13
2023-03-25T02:33:26.633Z,2.57
2023-03-25T02:36:30.279Z,1.87
2023-03-25T02:39:06.852Z,2.87
2023-03-25T02:41:58.605Z,2.30
2023-03-25T02:44:51.304Z,2.20
2023-03-25T02:47:21.611Z,2.63
2023-03-25T02:49:55.765Z,2.77
2023-03-25T02:52:29.810Z,2.43
2023-03-25T02:55:04.825Z,2.23
2023-03-25T02:57:34.960Z,2.07
2023-03-25T03:00:07.964Z,2.20
2023-03-25T03:02:34.933Z,2.10
2023-03-25T03:05:01.425Z,2.00
2023-03-25T03:07:31.841Z,2.10
2023-03-25T03:10:21.367Z,2.57
2023-03-25T03:13:12.088Z,2.70
2023-03-25T03:15:46.578Z,2.87
2023-03-25T03:18:44.743Z,2.07
2023-03-25T03:21:23.234Z,2.30
2023-03-25T03:23:59.959Z,2.30
2023-03-25T03:26:37.836Z,2.10
2023-03-25T03:29:11.913Z,2.23
2023-03-25T03:31:59.831Z,2.73
2023-03-25T03:34:34.658Z,2.83
2023-03-25T03:37:03.403Z,3.37
2023-03-25T03:39:34.915Z,2.50
2023-03-25T03:42:07.973Z,2.70
2023-03-25T03:44:37.905Z,3.33
2023-03-25T03:47:10.887Z,2.67
2023-03-25T03:49:42.952Z,2.70
2023-03-25T03:52:16.997Z,2.73
2023-03-25T03:54:54.647Z,3.03
2023-03-25T03:57:26.964Z,3.03
2023-03-25T04:00:06.496Z,2.87
2023-03-25T04:02:42.837Z,2.20
2023-03-25T04:05:13.686Z,3.07
2023-03-25T04:07:54.872Z,3.23
2023-03-25T04:10:29.554Z,3.53
2023-03-25T04:13:00.377Z,3.67
2023-03-25T04:15:26.878Z,3.60
2023-03-25T04:17:53.630Z,3.03
2023-03-25T04:20:25.574Z,2.93
2023-03-25T04:22:52.614Z,3.10
2023-03-25T04:25:21.326Z,3.27
2023-03-25T04:27:53.556Z,2.63
2023-03-25T04:30:21.335Z,2.73
2023-03-25T04:32:47.822Z,2.67
2023-03-25T04:35:19.158Z,2.60
2023-03-25T04:37:48.749Z,4.30
2023-03-25T04:40:18.562Z,3.07
2023-03-25T04:42:48.198Z,3.10
2023-03-25T04:45:16.454Z,2.77
2023-03-25T04:47:46.830Z,2.03
2023-03-25T04:50:19.864Z,2.73
2023-03-25T04:52:46.642Z,2.10
2023-03-25T04:55:17.618Z,3.50
2023-03-25T04:57:45.925Z,2.87
2023-03-25T05:00:14.751Z,3.23
2023-03-25T05:02:46.246Z,2.50
2023-03-25T05:05:18.265Z,2.80
2023-03-25T05:07:49.797Z,2.13
2023-03-25T05:10:18.372Z,2.97
2023-03-25T05:12:45.106Z,2.70
2023-03-25T05:15:12.505Z,2.67
2023-03-25T05:17:39.400Z,2.30
2023-03-25T05:20:08.750Z,2.10
2023-03-25T05:22:37.757Z,1.87
2023-03-25T05:25:09.652Z,2.00
2023-03-25T05:27:36.804Z,2.43
2023-03-25T05:30:06.833Z,2.10
2023-03-25T05:32:33.407Z,1.93
2023-03-25T05:35:00.712Z,2.47
2023-03-25T05:37:27.729Z,2.40
2023-03-25T05:39:54.165Z,2.23
2023-03-25T05:42:23.729Z,2.57
2023-03-25T05:44:54.296Z,2.60
2023-03-25T05:47:23.262Z,3.30
2023-03-25T05:49:51.414Z,2.20
2023-03-25T05:52:19.026Z,1.80
2023-03-25T05:54:50.494Z,2.50
2023-03-25T05:57:16.889Z,2.50
2023-03-25T05:59:43.471Z,2.50
2023-03-25T06:02:15.682Z,2.20
2023-03-25T06:04:42.758Z,1.93
2023-03-25T06:07:13.862Z,2.70
2023-03-25T06:09:46.378Z,2.70
2023-03-25T06:12:19.638Z,3.00
2023-03-25T06:14:47.083Z,2.80
2023-03-25T06:17:18.808Z,2.57
2023-03-25T06:19:45.176Z,2.47
2023-03-25T06:22:12.413Z,2.63
2023-03-25T06:24:40.693Z,2.60
2023-03-25T06:27:17.422Z,2.63
2023-03-25T06:29:44.072Z,2.93
2023-03-25T06:32:12.782Z,2.57
2023-03-25T06:34:42.365Z,2.23
2023-03-25T06:37:09.257Z,2.67
2023-03-25T06:39:37.653Z,2.87
2023-03-25T06:42:11.475Z,3.03
2023-03-25T06:44:51.321Z,2.60
2023-03-25T06:47:27.824Z,3.50
2023-03-25T06:49:54.688Z,4.77
2023-03-25T06:52:21.028Z,3.23
2023-03-25T06:54:47.396Z,2.67
2023-03-25T06:57:13.809Z,2.30
2023-03-25T06:59:40.280Z,3.07
2023-03-25T07:02:06.850Z,2.30
2023-03-25T07:04:33.458Z,2.20
2023-03-25T07:06:59.818Z,3.27
2023-03-25T07:09:26.268Z,3.37
2023-03-25T07:11:52.627Z,3.47
2023-03-25T07:14:18.983Z,3.37
2023-03-25T07:16:45.360Z,3.17
2023-03-25T07:19:11.735Z,4.13
2023-03-25T07:21:38.186Z,4.00
2023-03-25T07:24:04.794Z,3.80
2023-03-25T07:26:31.215Z,3.90
2023-03-25T07:28:57.600Z,3.60
2023-03-25T07:31:24.402Z,3.97
2023-03-25T07:33:51.480Z,3.20
2023-03-25T07:36:18.044Z,4.13
2023-03-25T07:38:44.386Z,3.63
2023-03-25T07:41:12.747Z,4.40
2023-03-25T07:43:46.520Z,3.23
2023-03-25T07:46:33.203Z,3.43
2023-03-25T07:48:59.618Z,3.30
2023-03-25T07:51:25.990Z,4.07
2023-03-25T07:53:52.660Z,3.83
2023-03-25T07:56:19.020Z,3.87
2023-03-25T07:58:46.369Z,3.63
2023-03-25T08:01:12.839Z,4.77
2023-03-25T08:03:39.801Z,3.63
2023-03-25T08:06:07.367Z,3.47
2023-03-25T08:08:34.185Z,3.40
2023-03-25T08:11:01.625Z,3.77
2023-03-25T08:13:28.493Z,3.30
2023-03-25T08:15:55.042Z,3.30
2023-03-25T08:18:21.456Z,3.40
2023-03-25T08:20:51.111Z,3.70
2023-03-25T08:23:19.988Z,3.60
2023-03-25T08:25:49.227Z,3.70
2023-03-25T08:28:18.120Z,3.00
2023-03-25T08:30:44.591Z,2.17
2023-03-25T08:33:11.122Z,2.77
2023-03-25T08:35:38.469Z,2.23
2023-03-25T08:38:07.470Z,2.20
2023-03-25T08:40:35.387Z,3.43
2023-03-25T08:43:06.444Z,2.73
2023-03-25T08:45:34.557Z,2.90
2023-03-25T08:48:01.663Z,2.93
2023-03-25T08:50:28.792Z,3.03
2023-03-25T08:52:57.463Z,2.63
2023-03-25T08:55:25.294Z,2.37
2023-03-25T08:57:51.692Z,2.60
2023-03-25T09:00:18.868Z,3.07
2023-03-25T09:02:45.869Z,2.83
2023-03-25T09:05:13.131Z,3.77
2023-03-25T09:07:39.804Z,3.17
2023-03-25T09:10:07.380Z,3.13
2023-03-25T09:12:33.825Z,2.90
2023-03-25T09:15:00.303Z,3.47
2023-03-25T09:17:27.304Z,3.60
2023-03-25T09:19:54.494Z,2.70
2023-03-25T09:22:21.861Z,3.60
2023-03-25T09:24:48.199Z,4.07
2023-03-25T09:27:14.572Z,2.63
2023-03-25T09:29:41.207Z,2.90
2023-03-25T09:32:07.656Z,2.67
2023-03-25T09:34:34.378Z,3.13
2023-03-25T09:37:01.143Z,2.90
2023-03-25T09:39:27.635Z,3.00
2023-03-25T09:42:19.114Z,2.57
2023-03-25T09:45:12.202Z,3.67
2023-03-25T09:47:41.502Z,3.63
2023-03-25T09:50:14.351Z,3.73
2023-03-25T09:53:01.870Z,3.83
2023-03-25T09:55:32.195Z,4.43
2023-03-25T09:58:13.393Z,3.47
2023-03-25T10:00:40.764Z,3.13
2023-03-25T10:03:14.097Z,3.70
2023-03-25T10:05:52.832Z,2.40
2023-03-25T10:08:38.240Z,3.53
2023-03-25T10:11:26.604Z,3.83
2023-03-25T10:14:25.622Z,3.77
2023-03-25T10:17:11.493Z,4.30
2023-03-25T10:20:01.903Z,4.07
2023-03-25T10:22:36.487Z,3.20
2023-03-25T10:25:06.417Z,3.67
2023-03-25T10:27:45.452Z,3.43
2023-03-25T10:30:17.985Z,4.37
2023-03-25T10:32:48.174Z,4.20
2023-03-25T10:35:40.500Z,2.80
2023-03-25T10:38:14.652Z,3.00
2023-03-25T10:40:50.435Z,3.30
2023-03-25T10:43:33.551Z,3.47
2023-03-25T10:46:32.232Z,2.63
2023-03-25T10:48:58.961Z,4.50
2023-03-25T10:51:32.101Z,2.87
2023-03-25T10:54:00.042Z,3.80
2023-03-25T10:56:31.206Z,3.77
2023-03-25T10:59:00.303Z,3.80
2023-03-25T11:01:38.969Z,4.13
2023-03-25T11:04:09.363Z,4.10
2023-03-25T11:06:40.904Z,3.73
2023-03-25T11:09:13.710Z,4.87
2023-03-25T11:11:42.217Z,3.93
2023-03-25T11:14:10.192Z,2.73
2023-03-25T11:16:43.753Z,3.37
2023-03-25T11:19:19.804Z,3.77
2023-03-25T11:21:52.558Z,2.97
2023-03-25T11:24:19.385Z,3.70
2023-03-25T11:26:48.550Z,3.37
2023-03-25T11:29:19.410Z,2.77
2023-03-25T11:32:05.602Z,2.90
2023-03-25T11:34:32.176Z,2.70
2023-03-25T11:37:31.009Z,2.90
2023-03-25T11:40:06.046Z,2.77
2023-03-25T11:42:40.210Z,2.20
2023-03-25T11:45:07.971Z,2.37
2023-03-25T11:47:37.998Z,2.40
2023-03-25T11:50:06.068Z,2.27
2023-03-25T11:52:45.678Z,2.80
2023-03-25T11:55:19.113Z,2.67
2023-03-25T11:57:47.776Z,2.43
2023-03-25T12:00:28.283Z,2.90
2023-03-25T12:03:13.378Z,2.73
2023-03-25T12:05:41.677Z,2.50
2023-03-25T12:08:15.895Z,1.83
2023-03-25T12:10:54.593Z,2.80
2023-03-25T12:13:35.037Z,2.37
2023-03-25T12:16:16.817Z,2.63
2023-03-25T12:19:01.863Z,2.90
2023-03-25T12:22:01.999Z,3.00
2023-03-25T12:24:46.517Z,2.47
2023-03-25T12:27:33.086Z,2.33
2023-03-25T12:30:06.007Z,2.00
2023-03-25T12:32:45.351Z,2.00
2023-03-25T12:35:27.927Z,2.30
2023-03-25T12:38:37.387Z,2.03
2023-03-25T12:41:17.580Z,1.93
2023-03-25T12:43:53.414Z,2.30
2023-03-25T12:46:58.506Z,1.47
2023-03-25T12:50:06.321Z,2.03
2023-03-25T12:52:51.394Z,2.10
2023-03-25T12:55:45.885Z,2.43
2023-03-25T12:58:35.200Z,2.33
2023-03-25T13:01:30.004Z,1.80
2023-03-25T13:04:17.812Z,2.33
2023-03-25T13:07:04.175Z,2.00
2023-03-25T13:09:55.918Z,2.47
2023-03-25T13:12:31.947Z,3.27
2023-03-25T13:15:16.277Z,2.80
2023-03-25T13:17:51.554Z,2.50
2023-03-25T13:20:19.258Z,3.03
2023-03-25T13:22:54.957Z,2.50
2023-03-25T13:25:32.138Z,2.03
2023-03-25T13:28:03.897Z,1.93
2023-03-25T13:30:37.343Z,1.93
2023-03-25T13:33:11.336Z,2.13
2023-03-25T13:35:53.048Z,2.87
2023-03-25T13:38:27.603Z,2.83
2023-03-25T13:41:29.121Z,1.83
2023-03-25T13:44:14.793Z,2.63
2023-03-25T13:46:47.123Z,1.50
2023-03-25T13:49:29.750Z,2.03
2023-03-25T13:51:57.084Z,1.80
2023-03-25T13:54:32.373Z,1.93
2023-03-25T13:57:24.387Z,1.63
2023-03-25T13:59:59.869Z,1.97
2023-03-25T14:02:54.083Z,1.60
2023-03-25T14:05:44.853Z,1.60
2023-03-25T14:08:25.691Z,2.50
2023-03-25T14:11:13.677Z,1.90
2023-03-25T14:13:45.096Z,2.43
2023-03-25T14:16:17.444Z,1.80
2023-03-25T14:18:48.284Z,1.97
2023-03-25T14:21:21.007Z,1.63
2023-03-25T14:23:48.802Z,1.70
2023-03-25T14:26:19.143Z,2.73
2023-03-25T14:28:47.661Z,1.90
2023-03-25T14:31:13.988Z,1.47
2023-03-25T14:34:02.105Z,2.30
2023-03-25T14:36:29.773Z,1.37
2023-03-25T14:38:57.629Z,1.83
2023-03-25T14:41:56.664Z,2.00
2023-03-25T14:44:28.668Z,1.70
2023-03-25T14:47:15.921Z,1.97
2023-03-25T14:50:05.175Z,1.90
2023-03-25T14:52:43.944Z,1.60
2023-03-25T14:55:19.468Z,1.53
2023-03-25T14:57:47.888Z,2.10
2023-03-25T15:00:29.721Z,1.70
2023-03-25T15:03:10.542Z,2.57
2023-03-25T15:05:38.164Z,2.23
2023-03-25T15:08:04.606Z,1.57
2023-03-25T15:10:38.898Z,1.67
2023-03-25T15:13:09.960Z,1.93
2023-03-25T15:15:45.556Z,1.50
2023-03-25T15:18:32.606Z,1.23
2023-03-25T15:21:11.291Z,1.97
2023-03-25T15:23:47.441Z,1.70
2023-03-25T15:26:20.891Z,2.03
2023-03-25T15:29:03.271Z,2.00
2023-03-25T15:31:52.564Z,1.90
2023-03-25T15:34:25.908Z,1.83
2023-03-25T15:37:04.914Z,2.10
2023-03-25T15:39:52.776Z,2.17
2023-03-25T15:42:51.375Z,2.37
2023-03-25T15:45:49.434Z,2.07
2023-03-25T15:48:32.556Z,2.43
2023-03-25T15:51:17.331Z,2.90
2023-03-25T15:53:55.987Z,2.33
2023-03-25T15:56:36.883Z,2.67
2023-03-25T15:59:42.645Z,2.60
2023-03-25T16:02:21.751Z,3.10
2023-03-25T16:04:50.782Z,3.57
2023-03-25T16:07:20.306Z,3.40
2023-03-25T16:09:48.559Z,2.67
2023-03-25T16:12:23.826Z,3.60
2023-03-25T16:14:52.042Z,3.87
2023-03-25T16:17:21.709Z,4.43
2023-03-25T16:19:54.326Z,3.53
2023-03-25T16:22:29.393Z,3.20
2023-03-25T16:24:58.322Z,3.20
2023-03-25T16:27:33.525Z,2.70
2023-03-25T16:29:59.866Z,3.40
2023-03-25T16:32:33.402Z,3.50
2023-03-25T16:35:00.788Z,4.03
2023-03-25T16:37:28.181Z,3.43
2023-03-25T16:39:57.335Z,3.90
2023-03-25T16:42:34.061Z,4.70
2023-03-25T16:45:01.852Z,4.40
2023-03-25T16:47:31.767Z,4.33
2023-03-25T16:50:01.057Z,4.13
2023-03-25T16:52:31.782Z,4.43
2023-03-25T16:54:58.270Z,3.97
2023-03-25T16:57:28.251Z,3.93
2023-03-25T16:59:56.020Z,4.67
2023-03-25T17:02:26.774Z,4.27
2023-03-25T17:04:56.469Z,5.20
2023-03-25T17:07:27.578Z,4.60
2023-03-25T17:10:00.490Z,4.50
2023-03-25T17:12:28.834Z,5.87
2023-03-25T17:15:04.295Z,4.23
2023-03-25T17:17:41.838Z,4.47
2023-03-25T17:20:17.866Z,4.17
2023-03-25T17:22:57.835Z,4.90
2023-03-25T17:25:26.180Z,4.20
2023-03-25T17:27:57.758Z,4.60
2023-03-25T17:30:41.699Z,4.17
2023-03-25T17:33:10.833Z,3.70
2023-03-25T17:35:38.247Z,4.73
2023-03-25T17:38:05.123Z,6.27
2023-03-25T17:40:31.561Z,5.40
2023-03-25T17:42:58.386Z,4.93
2023-03-25T17:45:25.658Z,3.93
2023-03-25T17:47:52.180Z,5.17
2023-03-25T17:50:25.268Z,5.33
2023-03-25T17:52:51.757Z,4.37
2023-03-25T17:55:18.143Z,4.40
2023-03-25T17:57:44.637Z,4.87
2023-03-25T18:00:18.346Z,5.00
2023-03-25T18:02:47.834Z,5.33
2023-03-25T18:05:14.673Z,4.87
2023-03-25T18:07:41.507Z,5.07
2023-03-25T18:10:17.794Z,4.70
2023-03-25T18:12:44.319Z,5.50
2023-03-25T18:15:10.938Z,4.50
2023-03-25T18:17:37.401Z,5.23
2023-03-25T18:20:21.503Z,4.23
2023-03-25T18:22:48.184Z,4.30
2023-03-25T18:25:14.605Z,4.00
2023-03-25T18:27:43.739Z,4.03
2023-03-25T18:30:34.283Z,3.83
2023-03-25T18:33:00.669Z,4.20
2023-03-25T18:35:27.094Z,3.30
2023-03-25T18:37:53.654Z,4.97
2023-03-25T18:40:23.426Z,4.63
2023-03-25T18:42:51.362Z,4.53
2023-03-25T18:45:22.811Z,5.37
2023-03-25T18:47:50.289Z,4.40
2023-03-25T18:50:38.136Z,5.23
2023-03-25T18:53:05.843Z,4.63
2023-03-25T18:55:34.058Z,4.30
2023-03-25T18:58:00.791Z,4.20
2023-03-25T19:00:28.961Z,4.07
2023-03-25T19:02:56.117Z,4.30
2023-03-25T19:05:24.499Z,3.43
2023-03-25T19:07:51.648Z,4.50
2023-03-25T19:10:21.573Z,4.23
2023-03-25T19:12:48.466Z,4.17
2023-03-25T19:15:17.487Z,3.60
2023-03-25T19:17:45.114Z,4.03
2023-03-25T19:20:17.719Z,3.77
2023-03-25T19:22:45.183Z,3.83
2023-03-25T19:25:11.840Z,3.27
2023-03-25T19:27:38.313Z,4.40
2023-03-25T19:30:06.395Z,3.67
2023-03-25T19:32:32.778Z,4.83
2023-03-25T19:34:59.149Z,4.93
2023-03-25T19:37:30.880Z,4.03
2023-03-25T19:39:58.008Z,4.53
2023-03-25T19:42:24.404Z,4.93
2023-03-25T19:44:50.802Z,4.67
2023-03-25T19:47:17.169Z,5.10
2023-03-25T19:49:43.494Z,5.17
2023-03-25T19:52:09.824Z,4.50
2023-03-25T19:54:36.204Z,4.13
2023-03-25T19:57:02.765Z,4.50
2023-03-25T19:59:29.189Z,4.73
2023-03-25T20:01:55.605Z,3.60
2023-03-25T20:04:22.020Z,3.57
2023-03-25T20:06:48.535Z,3.70
2023-03-25T20:09:14.849Z,3.23
2023-03-25T20:11:41.265Z,4.73
2023-03-25T20:14:07.659Z,4.40
2023-03-25T20:16:34.801Z,5.90
2023-03-25T20:19:01.437Z,5.67
2023-03-25T20:21:27.859Z,5.53
2023-03-25T20:23:54.226Z,6.17
2023-03-25T20:26:20.758Z,6.17
2023-03-25T20:28:47.733Z,5.97
2023-03-25T20:31:17.345Z,6.07
2023-03-25T20:33:44.029Z,6.37
2023-03-25T20:36:10.589Z,6.73
2023-03-25T20:38:41.999Z,6.10
2023-03-25T20:41:13.705Z,5.37
2023-03-25T20:43:40.113Z,6.20
2023-03-25T20:46:06.550Z,5.43
2023-03-25T20:48:33.487Z,4.87
2023-03-25T20:51:03.108Z,6.10
2023-03-25T20:53:30.633Z,4.70
2023-03-25T20:55:59.101Z,4.57
2023-03-25T20:58:26.492Z,4.00
2023-03-25T21:00:55.883Z,4.43
2023-03-25T21:03:23.044Z,4.67
2023-03-25T21:05:49.372Z,5.03
2023-03-25T21:08:16.057Z,4.33
2023-03-25T21:10:47.694Z,5.03
2023-03-25T21:13:15.258Z,4.73
2023-03-25T21:15:41.733Z,4.67
2023-03-25T21:18:11.511Z,4.00
2023-03-25T21:20:39.550Z,4.27
2023-03-25T21:23:07.079Z,3.27
2023-03-25T21:25:37.259Z,4.10
2023-03-25T21:28:04.924Z,3.43
2023-03-25T21:30:32.259Z,4.07
2023-03-25T21:32:58.649Z,3.13
2023-03-25T21:35:25.121Z,2.67
2023-03-25T21:37:52.018Z,2.70
2023-03-25T21:40:18.647Z,2.83
2023-03-25T21:42:48.643Z,3.37
2023-03-25T21:45:17.036Z,2.93
2023-03-25T21:47:45.153Z,3.33
2023-03-25T21:50:12.632Z,3.93
2023-03-25T21:52:46.511Z,4.13
2023-03-25T21:55:14.973Z,4.33
2023-03-25T21:57:44.391Z,4.80
2023-03-25T22:00:14.793Z,4.70
2023-03-25T22:02:44.998Z,4.00
2023-03-25T22:05:13.130Z,3.90
2023-03-25T22:07:40.544Z,3.97
2023-03-25T22:10:08.729Z,4.20
2023-03-25T22:12:35.686Z,4.20
2023-03-25T22:15:02.614Z,3.80
2023-03-25T22:17:29.008Z,3.67
2023-03-25T22:19:55.609Z,3.53
2023-03-25T22:22:22.134Z,4.60
2023-03-25T22:24:49.311Z,4.23
2023-03-25T22:27:15.656Z,4.30
2023-03-25T22:29:42.891Z,3.80
2023-03-25T22:32:09.238Z,4.67
2023-03-25T22:34:36.057Z,3.93
2023-03-25T22:37:02.700Z,4.43
2023-03-25T22:39:29.031Z,4.60
2023-03-25T22:41:57.663Z,4.27
2023-03-25T22:44:24.819Z,4.73
2023-03-25T22:46:51.799Z,5.47
2023-03-25T22:49:18.254Z,3.67
2023-03-25T22:51:44.695Z,5.07
2023-03-25T22:54:11.100Z,4.83
2023-03-25T22:56:38.068Z,4.43
2023-03-25T22:59:06.887Z,4.33
2023-03-25T23:01:34.253Z,3.93
2023-03-25T23:04:00.805Z,5.07
2023-03-25T23:06:27.246Z,4.97
2023-03-25T23:08:57.940Z,4.57
2023-03-25T23:11:27.601Z,4.57
2023-03-25T23:14:00.430Z,4.10
2023-03-25T23:16:30.548Z,4.90
2023-03-25T23:18:58.246Z,5.57
2023-03-25T23:21:27.314Z,5.60
2023-03-25T23:23:56.914Z,4.50
2023-03-25T23:26:29.410Z,3.60
2023-03-25T23:29:00.255Z,4.60
2023-03-25T23:31:33.497Z,5.10
2023-03-25T23:34:05.722Z,4.33
2023-03-25T23:36:34.165Z,5.13
2023-03-25T23:39:00.662Z,4.50
2023-03-25T23:41:27.065Z,4.53
2023-03-25T23:43:55.862Z,5.03
2023-03-25T23:46:24.298Z,5.00
2023-03-25T23:48:54.497Z,4.37
2023-03-25T23:51:23.971Z,5.07
2023-03-25T23:53:51.530Z,5.10
2023-03-25T23:56:19.894Z,5.63
2023-03-25T23:58:46.442Z,6.37
